EISG

Sligo Airport

Sligo, Ireland
METAR EISG 132000Z 14013G23KT 100V160 5000 BR BKN019 OVC030 06/04 Q1012
Observed Flight Rules
Dec-13 @ 20:00 UTC (12 hours ago) Marginal Visual Flight Rules
Wind Visibility Clouds Conditions
140° at 13 knots
 Gusting to 23 knots
5,005 meters
  • Broken at 1,900' AGL
  • Overcast at 3,000' AGL
  • Mist
Temperatures Readings
Current 6°C / 43°F
Dewpoint 4°C / 39°F
Humidity 87%
Altimeter 29.88" Hg
Pressure 1012 hPa
Elevation 3
METAR EISG 132000Z 14013G23KT 100V160 5000 BR BKN019 OVC030 06/04 Q1012
Observed Flight Rules
Dec-13 @ 20:00 UTC
(12 hours ago)
MVFR
Wind Visibility
140° at 13 knots
 Gusting to 23 knots
5,005 meters
Clouds
  • Broken at 1,900' AGL
  • Overcast at 3,000' AGL
Conditions
  • Mist
Temperature Dewpoint
6°C / 43°F 4°C / 39°F
Humidity Altimeter Pressure
87% 29.88" Hg 1012 hPa